Airfield :







YOU CAN JOIN US ON...

 
LOGIN :

Register | Disclaimer

   EN    FR    IT 

 









Legend :    VFR   Marginal VFR   IFR   Intensive IFR   Very Intensive IFR
Visi :
Ceiling :
>= 8 km
>= 3000ft
5 to 8 km
1000 to 3000 ft
1500m to 5 km
500 to 1000 ft
800 to 1500m
200 to 500 ft
< 800m
< 200 ft
Symbols :   Thunderstorms  Fog  Heavy snow  Heavy precipitations  Wind > 20 kt






- Airport Elevation : 107 ft


KBVY - Beverly Municipal

CURRENT METAR :
  • 121853Z 27007KT 10SM CLR M02/M11 A3067 RMK AO2 SLP382 T10171111

EXPIRED METARs :
  • 121753Z 27006KT 10SM CLR M02/M12 A3067 RMK AO2 SLP385 T10171117 11017 21072 56007
  • 121653Z 30009KT 10SM CLR M02/M12 A3068 RMK AO2 SLP387 T10221122
  • 121553Z 30010KT 10SM CLR M03/M12 A3068 RMK AO2 SLP385 T10281122

TAF N/A



MET'MAP, your aeronautical weather chart ! - Copyright ORBIFLY December 2007 - Disclaimer

ORBIFLY MET'MAP TEAM :

Programming & Development : Alexandra Zaïnal
Concept & original design : Baudouin d'Aumeries
Assistance for programming : Marc-Olivier Méhu
Technical & hardware support : Manuel Goepfert

Contact : metmap@orbifly.com




SOURCES & CREDITS :

   NOAA